Terminal Aerodrome Forecast
Issued by NWS

Home | Current Version | Previous Version | Text Only | Print | Product List | Glossary On
Versions: 1 2 3 4 5 6 7 8 9 10 11 12 13 14 15 16 17 18 19 20 21 22 23
000
FTUS45 KGGW 061100
TAFOLF
TAF
KOLF 061132Z 0612/0712 VRB05KT 5SM BR BKN090
     FM061500 33010KT P6SM VCSH BKN050
     FM061800 33013KT 3SM -SHRA OVC016
     FM070000 34014KT P6SM VCSH OVC050
     FM070600 34011KT P6SM BKN060=

USA.gov is the U.S. government's official web portal to all federal, state and local government web resources and services.